Time;durP1;ratioP1;P1;durP2;ratioP2;P2;SDS_P1;SDS_P2;PMS_P1;PMS_P2;Temp;Humidity;BMP_temperature;BMP_pressure;BME280_temperature;BME280_humidity;BME280_pressure;Samples;Min_cycle;Max_cycle;Signal;HPM_P1;HPM_P2
2022/05/15 00:02:28;;;;;;;;;7.00;6.67;;;;;22.62;41.46;101060.38;110512;1261;22230;-49
2022/05/15 00:04:56;;;;;;;;;7.00;6.33;;;;;22.61;41.38;101060.28;110479;1261;19521;-48
2022/05/15 00:07:23;;;;;;;;;5.50;5.50;;;;;22.61;41.36;101059.02;110472;1261;22187;-49
2022/05/15 00:09:50;;;;;;;;;10.00;9.00;;;;;22.61;41.33;101057.59;110453;1260;18831;-49
2022/05/15 00:12:20;;;;;;;;;9.00;7.00;;;;;22.61;41.46;101062.55;110496;1261;19496;-49
2022/05/15 00:14:47;;;;;;;;;8.33;7.67;;;;;22.61;41.55;101062.51;110536;1260;18871;-48
2022/05/15 00:17:15;;;;;;;;;10.00;9.00;;;;;22.61;41.42;101063.94;110491;1261;18916;-49
2022/05/15 00:19:42;;;;;;;;;8.33;8.33;;;;;22.61;41.38;101069.41;110465;1261;19623;-49
2022/05/15 00:22:09;;;;;;;;;7.00;7.00;;;;;22.62;41.34;101065.33;110502;1260;19245;-49
2022/05/15 00:24:36;;;;;;;;;10.50;10.00;;;;;22.61;41.41;101063.77;110484;1261;19147;-49
2022/05/15 00:27:04;;;;;;;;;7.67;7.67;;;;;22.61;41.25;101065.44;110517;1261;20306;-49
2022/05/15 00:29:31;;;;;;;;;8.50;8.50;;;;;22.61;41.30;101065.10;110475;1261;19139;-49
2022/05/15 00:31:58;;;;;;;;;9.00;9.00;;;;;22.61;41.40;101071.29;110478;1260;18815;-49
2022/05/15 00:34:26;;;;;;;;;7.67;7.67;;;;;22.61;41.25;101070.19;110512;1262;19508;-49
2022/05/15 00:36:53;;;;;;;;;7.00;7.00;;;;;22.61;41.27;101069.27;110493;1261;18457;-49
2022/05/15 00:39:20;;;;;;;;;12.50;12.50;;;;;22.61;41.28;101066.36;110502;1260;20109;-48
2022/05/15 00:41:47;;;;;;;;;5.67;5.67;;;;;22.61;41.18;101062.13;110500;1261;19810;-48
2022/05/15 00:44:14;;;;;;;;;7.00;7.00;;;;;22.61;41.23;101068.55;110493;1260;18709;-49
2022/05/15 00:46:42;;;;;;;;;6.00;6.00;;;;;22.61;41.21;101062.00;110506;1260;19984;-49
2022/05/15 00:49:09;;;;;;;;;6.00;6.00;;;;;22.61;41.19;101063.47;110481;1262;19744;-49
2022/05/15 00:51:36;;;;;;;;;8.33;6.67;;;;;22.60;41.33;101064.05;110483;1260;18999;-48
2022/05/15 00:54:03;;;;;;;;;6.67;6.67;;;;;22.60;41.21;101071.23;110514;1261;18830;-50
2022/05/15 00:56:31;;;;;;;;;8.33;8.33;;;;;22.61;41.15;101074.56;110472;1261;22748;-49
2022/05/15 00:58:58;;;;;;;;;8.33;8.33;;;;;22.60;41.02;101071.52;110479;1259;18438;-46
2022/05/15 01:01:25;;;;;;;;;6.00;6.00;;;;;22.59;41.21;101066.52;110456;1262;18721;-45
2022/05/15 01:03:52;;;;;;;;;8.00;6.50;;;;;22.61;41.02;101065.48;110470;1260;22374;-48
2022/05/15 01:06:19;;;;;;;;;6.67;6.67;;;;;22.60;41.10;101072.20;110489;1261;19800;-48
2022/05/15 01:08:47;;;;;;;;;5.33;5.33;;;;;22.61;41.02;101077.46;110515;1260;22909;-48
2022/05/15 01:11:15;;;;;;;;;5.00;4.33;;;;;22.60;40.98;101074.09;110483;1260;19672;-49
2022/05/15 01:13:42;;;;;;;;;6.00;6.00;;;;;22.61;41.06;101075.14;110475;1261;18462;-49
2022/05/15 01:16:09;;;;;;;;;6.00;6.00;;;;;22.60;41.07;101070.48;110490;1261;18675;-50
2022/05/15 01:18:37;;;;;;;;;7.00;6.67;;;;;22.60;40.88;101072.67;110494;1260;19558;-49
2022/05/15 01:21:04;;;;;;;;;5.67;5.67;;;;;22.60;40.95;101076.11;110519;1261;18436;-49
2022/05/15 01:23:31;;;;;;;;;9.00;7.00;;;;;22.60;40.95;101079.02;110473;1260;18726;-49
2022/05/15 01:26:00;;;;;;;;;6.67;6.33;;;;;22.60;40.92;101080.14;110513;1261;21868;-49
2022/05/15 01:28:27;;;;;;;;;7.67;7.00;;;;;22.60;40.88;101079.42;110498;1260;19876;-49
2022/05/15 01:30:54;;;;;;;;;7.00;6.33;;;;;22.60;40.93;101084.52;110485;1261;22625;-49
2022/05/15 01:33:22;;;;;;;;;7.00;7.00;;;;;22.60;40.83;101089.23;110558;1261;19619;-49
2022/05/15 01:35:49;;;;;;;;;7.00;7.00;;;;;22.60;40.84;101088.88;110524;1260;18627;-49
2022/05/15 01:38:18;;;;;;;;;7.67;7.67;;;;;22.59;40.91;101089.33;110490;1261;18984;-50
2022/05/15 01:40:45;;;;;;;;;7.00;6.67;;;;;22.59;40.95;101087.48;110482;1261;19512;-48
2022/05/15 01:43:13;;;;;;;;;7.33;6.33;;;;;22.59;40.87;101088.03;110493;1260;18409;-49
2022/05/15 01:45:40;;;;;;;;;6.00;5.00;;;;;22.59;40.86;101091.13;110488;1262;18743;-48
2022/05/15 01:48:07;;;;;;;;;6.00;6.00;;;;;22.59;40.83;101094.25;110532;1261;19507;-49
2022/05/15 01:50:35;;;;;;;;;7.67;7.67;;;;;22.59;40.79;101092.63;110479;1261;18444;-48
2022/05/15 01:53:02;;;;;;;;;7.67;7.67;;;;;22.59;40.88;101091.10;110456;1261;22187;-48
2022/05/15 01:55:29;;;;;;;;;8.33;7.00;;;;;22.59;40.85;101093.31;110477;1260;19650;-49
2022/05/15 01:57:56;;;;;;;;;6.00;5.67;;;;;22.59;40.88;101094.20;110504;1262;18724;-49
2022/05/15 02:00:24;;;;;;;;;6.00;6.00;;;;;22.59;40.85;101097.19;110494;1261;22790;-46
2022/05/15 02:02:51;;;;;;;;;9.00;7.00;;;;;22.60;40.96;101099.06;110502;1260;19690;-48
2022/05/15 02:05:18;;;;;;;;;3.67;3.67;;;;;22.60;40.75;101100.94;110465;1261;19724;-48
2022/05/15 02:07:47;;;;;;;;;6.33;6.33;;;;;22.59;40.88;101100.77;110498;1261;20636;-48
2022/05/15 02:10:15;;;;;;;;;6.00;6.00;;;;;22.59;40.67;101099.70;110501;1260;19592;-49
2022/05/15 02:12:42;;;;;;;;;10.33;10.00;;;;;22.59;40.76;101099.88;110510;1261;18334;-47
2022/05/15 02:15:09;;;;;;;;;7.00;7.00;;;;;22.58;40.74;101104.52;110519;1260;18808;-49
2022/05/15 02:17:36;;;;;;;;;9.00;9.00;;;;;22.59;40.74;101109.91;110487;1261;30119;-49
2022/05/15 02:20:04;;;;;;;;;6.33;6.33;;;;;22.58;40.70;101106.02;110470;1261;18442;-47
2022/05/15 02:22:31;;;;;;;;;6.33;6.33;;;;;22.58;40.82;101107.86;110521;1260;18893;-48
2022/05/15 02:24:59;;;;;;;;;6.50;6.00;;;;;22.58;40.76;101108.35;110501;1261;19635;-48
2022/05/15 02:27:26;;;;;;;;;6.00;6.00;;;;;22.57;40.77;101105.38;110488;1260;20613;-49
2022/05/15 02:29:54;;;;;;;;;5.67;5.67;;;;;22.58;40.78;101113.33;110525;1261;19155;-48
2022/05/15 02:32:21;;;;;;;;;8.00;8.00;;;;;22.57;40.77;101113.20;110489;1261;19464;-49
2022/05/15 02:34:48;;;;;;;;;3.00;3.00;;;;;22.57;40.66;101109.98;110484;1260;18514;-48
2022/05/15 02:37:15;;;;;;;;;6.00;5.67;;;;;22.58;40.66;101111.17;110509;1262;22787;-52
2022/05/15 02:39:42;;;;;;;;;7.00;6.67;;;;;22.57;40.66;101119.83;110478;1261;19396;-53
2022/05/15 02:42:10;;;;;;;;;10.00;7.67;;;;;22.57;40.61;101119.96;110491;1260;18373;-46
2022/05/15 02:44:37;;;;;;;;;5.50;5.50;;;;;22.55;40.66;101112.23;110495;1260;21138;-49
2022/05/15 02:47:04;;;;;;;;;7.67;6.00;;;;;22.57;40.59;101111.39;110435;1260;21556;-47
2022/05/15 02:52:16;;;;;;;;;5.00;5.00;;;;;22.58;40.41;101113.16;110483;1262;22532;-47
2022/05/15 02:54:44;;;;;;;;;5.00;5.00;;;;;22.58;40.41;101114.73;110505;1260;19476;-47
2022/05/15 02:57:11;;;;;;;;;10.00;7.00;;;;;22.58;40.45;101118.62;110547;1261;18505;-46
2022/05/15 02:59:38;;;;;;;;;5.00;5.00;;;;;22.58;40.53;101123.37;110483;1260;18870;-49
2022/05/15 03:02:06;;;;;;;;;5.50;5.00;;;;;22.58;40.47;101120.44;110488;1261;19511;-49
2022/05/15 03:04:33;;;;;;;;;6.67;6.00;;;;;22.57;40.42;101123.45;110495;1261;18297;-48
2022/05/15 03:07:00;;;;;;;;;6.00;5.33;;;;;22.57;40.45;101125.46;110491;1260;19052;-48
2022/05/15 03:09:29;;;;;;;;;6.00;6.00;;;;;22.57;40.45;101124.20;110494;1261;19621;-51
2022/05/15 03:11:56;;;;;;;;;6.00;6.00;;;;;22.57;40.32;101129.49;110502;1261;18688;-47
2022/05/15 03:14:23;;;;;;;;;8.33;7.00;;;;;22.56;40.45;101135.55;110472;1260;23044;-45
2022/05/15 03:16:50;;;;;;;;;7.00;7.00;;;;;22.57;40.46;101141.72;110513;1261;19596;-45
2022/05/15 03:19:17;;;;;;;;;6.00;6.00;;;;;22.57;40.31;101140.62;110494;1260;18365;-49
2022/05/15 03:21:45;;;;;;;;;9.00;7.00;;;;;22.56;40.33;101139.73;110499;1260;19061;-47
2022/05/15 03:24:12;;;;;;;;;6.00;6.00;;;;;22.56;40.28;101139.95;110510;1261;19664;-48
2022/05/15 03:26:39;;;;;;;;;6.00;5.00;;;;;22.56;40.41;101140.88;110486;1260;18511;-47
2022/05/15 03:29:07;;;;;;;;;7.00;6.67;;;;;22.56;40.36;101144.14;110501;1260;18981;-47
2022/05/15 03:31:35;;;;;;;;;6.67;6.00;;;;;22.56;40.34;101148.65;110497;1261;19796;-49
2022/05/15 03:34:03;;;;;;;;;6.00;6.00;;;;;22.57;40.34;101149.16;110510;1261;18490;-49
2022/05/15 03:36:30;;;;;;;;;5.00;5.00;;;;;22.57;40.36;101152.02;110505;1260;18755;-46
2022/05/15 03:38:57;;;;;;;;;6.00;6.00;;;;;22.57;40.32;101158.21;110528;1261;19461;-45
2022/05/15 03:41:24;;;;;;;;;7.00;7.00;;;;;22.57;40.34;101161.19;110466;1260;18453;-50
2022/05/15 03:43:52;;;;;;;;;6.00;6.00;;;;;22.57;40.32;101164.23;110490;1261;20009;-47
2022/05/15 03:46:19;;;;;;;;;6.00;6.00;;;;;22.57;40.39;101162.92;110493;1261;21175;-49
2022/05/15 03:48:46;;;;;;;;;7.67;6.00;;;;;22.58;40.44;101164.73;110500;1260;19959;-50
2022/05/15 03:51:14;;;;;;;;;6.67;6.00;;;;;22.57;40.34;101165.52;110496;1261;22715;-48
2022/05/15 03:53:44;;;;;;;;;6.00;6.00;;;;;22.57;40.42;101168.04;110478;1261;22043;-50
2022/05/15 03:56:11;;;;;;;;;6.00;5.67;;;;;22.58;40.46;101165.61;110475;1261;22207;-49
2022/05/15 03:58:38;;;;;;;;;7.00;7.00;;;;;22.58;40.38;101168.48;110513;1261;18797;-48
2022/05/15 04:01:05;;;;;;;;;6.67;6.67;;;;;22.57;40.37;101171.29;110485;1261;19727;-49
2022/05/15 04:03:33;;;;;;;;;6.00;6.00;;;;;22.58;40.39;101167.80;110509;1260;19848;-46
2022/05/15 04:06:00;;;;;;;;;6.00;6.00;;;;;22.58;40.47;101169.27;110487;1262;19450;-49
2022/05/15 04:08:28;;;;;;;;;7.67;6.67;;;;;22.58;40.47;101170.83;110500;1260;19708;-49
2022/05/15 04:10:55;;;;;;;;;7.00;7.00;;;;;22.59;40.37;101171.89;110489;1261;18427;-49
2022/05/15 04:13:23;;;;;;;;;9.00;7.00;;;;;22.58;40.35;101171.17;110497;1261;18964;-49
2022/05/15 04:15:50;;;;;;;;;5.33;5.33;;;;;22.59;40.31;101175.32;110516;1260;19575;-48
2022/05/15 04:18:17;;;;;;;;;7.00;7.00;;;;;22.59;40.28;101174.90;110525;1261;18475;-49
2022/05/15 04:20:44;;;;;;;;;5.33;5.00;;;;;22.59;40.33;101175.66;110482;1260;18669;-49
2022/05/15 04:23:12;;;;;;;;;9.50;6.50;;;;;22.59;40.41;101179.29;110488;1260;19665;-48
2022/05/15 04:25:39;;;;;;;;;7.00;6.00;;;;;22.59;40.36;101181.33;110460;1261;18717;-50
2022/05/15 04:28:06;;;;;;;;;6.33;6.33;;;;;22.60;40.30;101183.59;110480;1261;18840;-48
2022/05/15 04:30:34;;;;;;;;;9.00;6.67;;;;;22.60;40.44;101186.66;110492;1261;19628;-49
2022/05/15 04:33:01;;;;;;;;;6.00;6.00;;;;;22.59;40.20;101183.66;110425;1261;19781;-48
2022/05/15 04:35:29;;;;;;;;;7.00;7.00;;;;;22.60;40.34;101184.89;110439;1262;18943;-49
2022/05/15 04:37:56;;;;;;;;;6.00;6.00;;;;;22.60;40.24;101182.83;110473;1261;19522;-50
2022/05/15 04:40:24;;;;;;;;;6.00;6.00;;;;;22.60;40.37;101185.05;110484;1260;22248;-50
2022/05/15 04:42:51;;;;;;;;;9.00;9.00;;;;;22.62;40.27;101188.11;110493;1261;18809;-49
2022/05/15 04:45:18;;;;;;;;;7.00;7.00;;;;;22.63;40.21;101188.34;110519;1260;19596;-49
2022/05/15 04:47:46;;;;;;;;;10.50;7.00;;;;;22.64;40.20;101188.73;110478;1260;23076;-50
2022/05/15 04:50:13;;;;;;;;;7.00;7.00;;;;;22.65;40.28;101189.31;110457;1261;18900;-48
2022/05/15 04:52:40;;;;;;;;;9.00;9.00;;;;;22.66;40.24;101188.51;110482;1260;19506;-49
2022/05/15 04:55:07;;;;;;;;;7.00;7.00;;;;;22.67;40.27;101192.39;110495;1261;18854;-49
2022/05/15 04:57:35;;;;;;;;;9.00;9.00;;;;;22.68;40.11;101189.20;110462;1261;18675;-49
2022/05/15 05:00:03;;;;;;;;;6.67;6.67;;;;;22.66;40.38;101192.67;110498;1260;19519;-48
2022/05/15 05:02:30;;;;;;;;;7.00;7.00;;;;;22.66;40.38;101188.56;110440;1261;18345;-49
2022/05/15 05:04:59;;;;;;;;;7.00;7.00;;;;;22.67;40.33;101187.54;110471;1260;18768;-49
2022/05/15 05:07:26;;;;;;;;;10.00;7.00;;;;;22.66;40.32;101190.38;110496;1261;19391;-50
2022/05/15 05:09:54;;;;;;;;;8.33;7.00;;;;;22.66;40.27;101194.67;110457;1259;18441;-55
2022/05/15 05:12:21;;;;;;;;;9.00;9.00;;;;;22.65;40.29;101195.33;110471;1261;20123;-52
2022/05/15 05:14:48;;;;;;;;;7.00;7.00;;;;;22.65;40.07;101195.36;110418;1260;19647;-49
2022/05/15 05:17:15;;;;;;;;;6.67;6.00;;;;;22.69;40.27;101199.09;110393;1261;22934;-48
2022/05/15 05:19:43;;;;;;;;;6.33;6.00;;;;;22.72;40.15;101197.11;110398;1260;18838;-49
2022/05/15 05:22:10;;;;;;;;;10.33;9.67;;;;;22.75;40.16;101203.75;110469;1261;19464;-50
2022/05/15 05:24:37;;;;;;;;;9.00;9.00;;;;;22.77;40.54;101205.62;110450;1261;18547;-49
2022/05/15 05:27:04;;;;;;;;;7.00;7.00;;;;;22.79;40.61;101207.64;110481;1261;22820;-50
2022/05/15 05:29:32;;;;;;;;;9.33;8.33;;;;;22.81;40.49;101214.41;110393;1261;19648;-48
2022/05/15 05:32:01;;;;;;;;;9.50;9.00;;;;;22.83;40.56;101215.73;110457;1261;18706;-49
2022/05/15 05:34:28;;;;;;;;;9.00;6.67;;;;;22.84;40.65;101219.35;110400;1261;18643;-49
2022/05/15 05:36:55;;;;;;;;;11.00;10.00;;;;;22.88;40.80;101216.77;110454;1261;19721;-49
2022/05/15 05:39:22;;;;;;;;;7.00;6.33;;;;;22.92;40.97;101218.35;110486;1262;18738;-50
2022/05/15 05:41:50;;;;;;;;;6.33;6.33;;;;;22.99;41.35;101223.38;108517;1261;2539983;-50
2022/05/15 05:44:17;;;;;;;;;7.00;7.00;;;;;23.04;41.45;101223.67;110430;1260;19642;-52
2022/05/15 05:46:45;;;;;;;;;6.00;6.00;;;;;23.08;41.49;101225.36;110459;1261;18635;-50
2022/05/15 05:49:12;;;;;;;;;6.33;6.00;;;;;23.11;41.32;101225.84;110458;1262;18725;-49
2022/05/15 05:51:39;;;;;;;;;6.00;6.00;;;;;23.13;41.10;101228.55;110458;1261;21739;-50
2022/05/15 05:54:07;;;;;;;;;8.33;7.00;;;;;23.15;41.13;101233.95;110511;1261;18407;-44
2022/05/15 05:56:34;;;;;;;;;6.00;5.50;;;;;23.18;41.10;101229.42;110413;1260;19737;-49
2022/05/15 05:59:01;;;;;;;;;6.33;6.33;;;;;23.21;41.15;101233.83;110401;1261;19446;-49
2022/05/15 06:01:28;;;;;;;;;6.00;5.00;;;;;23.19;41.15;101228.27;110446;1261;18516;-49
2022/05/15 06:06:40;;;;;;;;;7.00;6.67;;;;;23.19;41.07;101232.36;110336;1261;19818;-48
2022/05/15 06:09:08;;;;;;;;;3.67;3.67;;;;;23.23;41.06;101237.96;110518;1261;18523;-49
2022/05/15 06:11:35;;;;;;;;;5.00;5.00;;;;;23.26;41.02;101236.22;110466;1262;19346;-51
2022/05/15 06:14:02;;;;;;;;;6.33;6.33;;;;;23.27;41.14;101238.67;110435;1261;19526;-49
2022/05/15 06:16:31;;;;;;;;;5.00;5.00;;;;;23.28;41.12;101234.19;110351;1260;21929;-49
2022/05/15 06:18:58;;;;;;;;;5.67;5.67;;;;;23.31;41.30;101235.94;110446;1261;18780;-49
2022/05/15 06:21:25;;;;;;;;;5.00;5.00;;;;;23.35;41.15;101238.61;110414;1261;19516;-51
2022/05/15 06:23:53;;;;;;;;;5.00;5.00;;;;;23.34;41.12;101235.02;110488;1261;18486;-49
2022/05/15 06:26:20;;;;;;;;;5.00;5.00;;;;;23.34;41.12;101231.19;110437;1262;22328;-49
2022/05/15 06:28:47;;;;;;;;;5.00;5.00;;;;;23.37;41.88;101232.82;110528;1259;21442;-50
2022/05/15 06:31:14;;;;;;;;;7.00;5.00;;;;;23.41;41.91;101238.55;110457;1258;22210;-49
2022/05/15 06:33:42;;;;;;;;;5.33;5.33;;;;;23.33;41.40;101236.98;110466;1259;18749;-49
2022/05/15 06:36:09;;;;;;;;;5.00;5.00;;;;;22.99;41.34;101241.06;110466;1259;19498;-50
2022/05/15 06:38:40;;;;;;;;;5.00;5.00;;;;;22.84;41.32;101243.81;110454;1259;22270;-49
2022/05/15 06:41:08;;;;;;;;;6.00;4.33;;;;;22.75;40.97;101248.41;110421;1259;19437;-49
2022/05/15 06:43:35;;;;;;;;;13.00;11.00;;;;;22.62;40.82;101248.21;110542;1259;19510;-49
2022/05/15 06:46:05;;;;;;;;;9.67;9.33;;;;;22.55;40.50;101251.17;110498;1259;18376;-48
2022/05/15 06:48:33;;;;;;;;;6.00;6.00;;;;;22.41;40.41;101258.73;110567;1258;18714;-49
2022/05/15 06:51:00;;;;;;;;;10.33;10.33;;;;;22.36;40.21;101261.04;110534;1259;19673;-50
2022/05/15 06:53:28;;;;;;;;;8.33;6.67;;;;;22.40;39.93;101259.50;110502;1259;18589;-47
2022/05/15 06:58:40;;;;;;;;;12.67;10.00;;;;;22.43;39.55;101259.69;110534;1259;19708;-48
2022/05/15 07:01:07;;;;;;;;;5.67;5.67;;;;;22.43;39.46;101260.61;110404;1259;18637;-49
2022/05/15 07:03:35;;;;;;;;;10.00;10.00;;;;;22.51;39.54;101263.63;110510;1259;18726;-50
2022/05/15 07:06:02;;;;;;;;;5.00;5.00;;;;;22.58;39.31;101262.48;110539;1259;22031;-48
2022/05/15 07:08:29;;;;;;;;;6.50;6.00;;;;;22.58;39.10;101266.29;110568;1259;18735;-49
2022/05/15 07:10:56;;;;;;;;;6.00;6.00;;;;;22.56;38.91;101263.44;110538;1259;18954;-49
2022/05/15 07:13:25;;;;;;;;;6.67;5.00;;;;;22.55;38.69;101262.31;110540;1259;19553;-50
2022/05/15 07:15:52;;;;;;;;;3.00;3.00;;;;;22.40;38.42;101266.90;110421;1259;18453;-48
2022/05/15 07:18:23;;;;;;;;;7.00;7.00;;;;;22.18;38.54;101269.85;110586;1259;18763;-55
2022/05/15 07:20:50;;;;;;;;;5.33;4.67;;;;;22.28;38.12;101268.85;110540;1258;19664;-48
2022/05/15 07:23:17;;;;;;;;;6.67;5.67;;;;;22.34;37.87;101266.91;110543;1258;18574;-51
2022/05/15 07:25:45;;;;;;;;;9.00;9.00;;;;;22.66;37.69;101267.60;110332;1260;18751;-52
2022/05/15 07:28:12;;;;;;;;;4.67;4.33;;;;;22.90;37.69;101266.63;110404;1260;19686;-51
2022/05/15 07:30:39;;;;;;;;;6.00;6.00;;;;;22.98;37.83;101260.96;110443;1261;18421;-49
2022/05/15 07:33:06;;;;;;;;;6.00;6.00;;;;;23.06;37.67;101268.80;110474;1261;20129;-51
2022/05/15 07:35:34;;;;;;;;;6.00;5.67;;;;;23.09;37.38;101268.79;110449;1260;19376;-51
2022/05/15 07:38:01;;;;;;;;;6.67;6.67;;;;;22.81;36.73;101268.27;110382;1260;21214;-51
2022/05/15 07:40:28;;;;;;;;;6.00;6.00;;;;;22.51;36.93;101271.64;110311;1261;18783;-50
2022/05/15 07:42:55;;;;;;;;;6.00;5.00;;;;;22.46;37.16;101269.58;110347;1260;19897;-48
2022/05/15 07:45:23;;;;;;;;;7.00;7.00;;;;;22.42;36.88;101274.34;110399;1261;18617;-48
2022/05/15 07:47:50;;;;;;;;;9.00;9.00;;;;;22.36;36.88;101271.01;110288;1260;18775;-50
2022/05/15 07:50:17;;;;;;;;;9.33;9.33;;;;;22.26;36.90;101271.14;110332;1262;20959;-49
2022/05/15 07:52:44;;;;;;;;;6.00;5.33;;;;;22.26;36.80;101267.63;110343;1261;18778;-49
2022/05/15 07:55:12;;;;;;;;;6.33;6.33;;;;;22.25;36.72;101270.90;110348;1260;18753;-53
2022/05/15 07:57:39;;;;;;;;;6.00;6.00;;;;;22.22;36.77;101271.58;110451;1262;19471;-49
2022/05/15 08:00:06;;;;;;;;;5.33;5.33;;;;;22.22;36.73;101270.63;110450;1260;19850;-49
2022/05/15 08:02:33;;;;;;;;;5.67;5.67;;;;;22.26;36.73;101278.16;110451;1261;18877;-50
2022/05/15 08:10:27;;;;;;;;;5.00;5.00;;;;;22.71;36.72;101276.84;109816;1265;19202;-50
2022/05/15 08:12:54;;;;;;;;;3.00;3.00;;;;;22.85;36.32;101275.08;109904;1265;20399;-51
2022/05/15 08:15:22;;;;;;;;;5.00;5.00;;;;;22.92;36.04;101273.11;109984;1267;22016;-48
2022/05/15 08:17:49;;;;;;;;;6.00;6.00;;;;;22.93;35.69;101271.16;109906;1266;19134;-48
2022/05/15 08:25:46;;;;;;;;;4.00;4.00;;;;;22.53;34.98;101281.27;110103;1267;22715;-46
2022/05/15 08:28:13;;;;;;;;;3.00;3.00;;;;;22.42;34.75;101287.85;110102;1266;19490;-46
2022/05/15 08:30:41;;;;;;;;;5.00;3.33;;;;;22.38;34.72;101284.98;110121;1267;18485;-48
2022/05/15 08:33:08;;;;;;;;;5.00;5.00;;;;;22.41;34.83;101292.13;110032;1266;18757;-49
2022/05/15 08:35:36;;;;;;;;;9.67;9.67;;;;;22.35;34.73;101293.88;110111;1267;19629;-53
2022/05/15 08:38:03;;;;;;;;;7.00;7.00;;;;;22.28;34.37;101292.56;110092;1266;18395;-49
2022/05/15 08:40:31;;;;;;;;;6.00;6.00;;;;;22.26;33.88;101294.01;110095;1266;20168;-52
2022/05/15 08:42:58;;;;;;;;;3.00;3.00;;;;;22.26;33.78;101296.06;110063;1267;19605;-50
2022/05/15 08:45:26;;;;;;;;;5.00;5.00;;;;;22.25;33.73;101290.15;110312;1261;18460;-48
2022/05/15 08:47:53;;;;;;;;;5.00;5.00;;;;;22.24;33.83;101296.27;110470;1261;18940;-50
2022/05/15 08:50:20;;;;;;;;;3.33;3.00;;;;;22.20;34.36;101298.77;110441;1261;19567;-51
2022/05/15 08:52:48;;;;;;;;;6.67;6.33;;;;;22.21;34.17;101295.01;110459;1261;20982;-49
2022/05/15 08:55:15;;;;;;;;;3.00;3.00;;;;;22.25;34.43;101296.71;110482;1261;19838;-50
2022/05/15 08:57:43;;;;;;;;;4.67;3.33;;;;;22.30;34.61;101294.48;110474;1261;19593;-49
2022/05/15 09:00:11;;;;;;;;;4.67;4.67;;;;;22.30;34.32;101295.91;110423;1261;18385;-51
2022/05/15 09:02:38;;;;;;;;;3.33;3.33;;;;;22.28;33.60;101295.73;110402;1261;20690;-49
2022/05/15 09:05:05;;;;;;;;;3.00;3.00;;;;;22.24;33.08;101295.14;110386;1262;19533;-49
2022/05/15 09:07:34;;;;;;;;;6.00;3.33;;;;;22.23;32.86;101296.36;110375;1262;22762;-51
2022/05/15 09:10:01;;;;;;;;;2.67;2.67;;;;;22.23;32.72;101295.30;110417;1261;19038;-50
2022/05/15 09:12:28;;;;;;;;;2.67;2.67;;;;;22.22;31.94;101295.38;110432;1262;21445;-49
2022/05/15 09:14:56;;;;;;;;;5.00;5.00;;;;;22.22;31.62;101296.98;110414;1261;18680;-50
2022/05/15 09:17:24;;;;;;;;;3.33;3.33;;;;;22.25;31.70;101294.39;110301;1261;20700;-51
2022/05/15 09:19:51;;;;;;;;;4.00;3.33;;;;;22.24;31.54;101291.55;110342;1261;22019;-49
2022/05/15 09:22:18;;;;;;;;;3.33;3.33;;;;;22.25;31.42;101289.91;110362;1262;18591;-47
2022/05/15 09:24:46;;;;;;;;;4.00;4.00;;;;;22.30;31.54;101283.04;110410;1261;18863;-48
2022/05/15 09:27:14;;;;;;;;;5.00;4.00;;;;;22.38;31.59;101285.86;110435;1261;19537;-50
2022/05/15 09:29:41;;;;;;;;;4.33;3.00;;;;;22.34;31.47;101281.26;110486;1259;18502;-50
2022/05/15 09:32:08;;;;;;;;;5.00;5.00;;;;;22.32;31.31;101286.58;110432;1259;19031;-49
2022/05/15 09:34:35;;;;;;;;;6.00;5.00;;;;;22.29;31.16;101288.79;110362;1259;19559;-50
2022/05/15 09:39:44;;;;;;;;;4.00;4.00;;;;;22.30;31.14;101278.64;110421;1259;20232;-50
2022/05/15 09:44:56;;;;;;;;;3.00;3.00;;;;;22.39;31.37;101279.39;110412;1259;18568;-50
2022/05/15 09:47:23;;;;;;;;;5.00;5.00;;;;;22.36;31.78;101285.62;110418;1259;18992;-52
2022/05/15 09:49:51;;;;;;;;;3.00;2.33;;;;;22.34;31.41;101281.88;110445;1258;19581;-48
2022/05/15 09:52:18;;;;;;;;;3.00;3.00;;;;;22.33;30.96;101278.15;110427;1259;18415;-49
2022/05/15 09:54:45;;;;;;;;;2.00;2.00;;;;;22.34;30.80;101273.05;110510;1259;18785;-50
2022/05/15 09:57:12;;;;;;;;;5.00;5.00;;;;;22.44;30.89;101276.19;110520;1259;19612;-50
2022/05/15 09:59:40;;;;;;;;;3.33;3.33;;;;;22.51;30.90;101274.00;110442;1259;18452;-49
2022/05/15 10:02:07;;;;;;;;;6.00;5.00;;;;;22.50;31.33;101284.73;110372;1259;21875;-48
2022/05/15 10:04:34;;;;;;;;;9.67;9.00;;;;;22.48;31.66;101281.33;110372;1260;19504;-48
2022/05/15 10:07:02;;;;;;;;;10.00;10.00;;;;;22.43;32.14;101279.54;110360;1261;18389;-49
2022/05/15 10:09:30;;;;;;;;;7.33;7.33;;;;;22.43;32.01;101286.30;110555;1258;19222;-47
2022/05/15 10:11:58;;;;;;;;;10.00;9.00;;;;;22.46;32.42;101286.45;110341;1259;20051;-49
2022/05/15 10:14:25;;;;;;;;;9.00;7.00;;;;;22.57;33.00;101288.12;110347;1259;18443;-47
2022/05/15 10:16:52;;;;;;;;;9.50;8.00;;;;;22.61;32.57;101285.11;110346;1259;18828;-47
2022/05/15 10:19:20;;;;;;;;;7.00;6.00;;;;;22.73;32.99;101284.79;110384;1259;19832;-49
2022/05/15 10:21:47;;;;;;;;;6.00;6.00;;;;;22.73;32.60;101277.97;110365;1259;18528;-49
2022/05/15 10:24:14;;;;;;;;;5.00;5.00;;;;;22.60;32.93;101283.73;110559;1258;19666;-50
2022/05/15 10:26:41;;;;;;;;;3.00;3.00;;;;;22.55;33.12;101277.28;110410;1258;19451;-50
2022/05/15 10:29:09;;;;;;;;;3.00;3.00;;;;;22.50;33.16;101275.73;110578;1259;20444;-55
2022/05/15 10:31:36;;;;;;;;;2.67;2.67;;;;;22.51;33.01;101279.20;110495;1258;18630;-56
2022/05/15 10:34:03;;;;;;;;;5.00;5.00;;;;;22.57;33.19;101281.05;110465;1261;21536;-51
2022/05/15 10:36:30;;;;;;;;;10.00;8.33;;;;;22.60;32.84;101277.70;110461;1259;20282;-50
2022/05/15 10:38:58;;;;;;;;;23.00;17.00;;;;;22.62;33.12;101280.41;110517;1259;22722;-50
2022/05/15 10:41:26;;;;;;;;;11.67;11.67;;;;;22.72;33.04;101280.05;110470;1259;19910;-50
2022/05/15 10:43:54;;;;;;;;;15.00;11.00;;;;;22.80;33.28;101277.45;110283;1259;19247;-51
2022/05/15 10:46:22;;;;;;;;;10.50;9.00;;;;;22.81;33.37;101280.21;110246;1260;18817;-49
2022/05/15 10:48:49;;;;;;;;;5.50;5.00;;;;;22.76;33.65;101274.88;110290;1261;19946;-48
2022/05/15 10:51:16;;;;;;;;;7.67;7.00;;;;;22.63;33.79;101275.02;110362;1261;18697;-49
2022/05/15 10:59:14;;;;;;;;;9.67;6.67;;;;;22.61;34.18;101268.47;110351;1259;18484;-48
2022/05/15 11:01:41;;;;;;;;;5.00;5.00;;;;;22.66;34.13;101265.75;110399;1258;18790;-48
2022/05/15 11:04:08;;;;;;;;;3.00;3.00;;;;;22.63;34.26;101269.55;110393;1260;19804;-48
2022/05/15 11:06:35;;;;;;;;;3.67;3.67;;;;;22.65;34.27;101270.77;110428;1261;18441;-52
2022/05/15 11:09:03;;;;;;;;;3.00;3.00;;;;;22.73;34.21;101265.19;110461;1261;18674;-48
2022/05/15 11:11:30;;;;;;;;;5.00;5.00;;;;;22.72;34.12;101266.69;110427;1260;19849;-50
2022/05/15 11:13:57;;;;;;;;;4.00;3.00;;;;;22.74;34.07;101260.09;110412;1261;21483;-48
2022/05/15 11:16:24;;;;;;;;;4.33;4.33;;;;;22.76;34.14;101259.90;110433;1260;22979;-49
2022/05/15 11:18:52;;;;;;;;;7.00;6.00;;;;;22.71;34.02;101255.96;110331;1259;19416;-52
2022/05/15 11:21:19;;;;;;;;;6.00;5.00;;;;;22.63;34.03;101256.99;110479;1261;22951;-48
2022/05/15 11:23:46;;;;;;;;;3.67;3.67;;;;;22.63;34.14;101256.02;110459;1260;18778;-49
2022/05/15 11:26:13;;;;;;;;;2.00;2.00;;;;;22.66;34.01;101256.26;110468;1261;22475;-50
2022/05/15 11:28:41;;;;;;;;;3.00;3.00;;;;;22.65;33.66;101256.81;110441;1260;18443;-50
2022/05/15 11:31:09;;;;;;;;;3.00;3.00;;;;;22.59;33.91;101251.39;110434;1261;19895;-48
2022/05/15 11:33:36;;;;;;;;;4.33;3.00;;;;;22.63;34.17;101249.67;110435;1262;19998;-52
2022/05/15 11:36:04;;;;;;;;;5.00;5.00;;;;;22.60;34.05;101252.36;110479;1260;18591;-49
2022/05/15 11:38:31;;;;;;;;;2.67;2.67;;;;;22.57;34.11;101255.17;110348;1261;18689;-47
2022/05/15 11:40:59;;;;;;;;;3.00;3.00;;;;;22.59;33.97;101254.41;110305;1261;19544;-49
2022/05/15 11:43:27;;;;;;;;;5.00;3.00;;;;;22.59;34.03;101251.06;110461;1261;18471;-51
2022/05/15 11:45:54;;;;;;;;;2.33;2.33;;;;;22.55;34.45;101252.59;110467;1261;18704;-48
2022/05/15 11:48:21;;;;;;;;;5.00;5.00;;;;;22.59;34.48;101244.02;110437;1260;19585;-50